createdAt,value
2018-08-19T00:00:37.866Z,91.22
2018-08-19T00:01:37.794Z,91.38
2018-08-19T00:02:37.792Z,91.36
2018-08-19T00:03:37.869Z,91.17
2018-08-19T00:04:37.800Z,90.90
2018-08-19T00:05:37.866Z,90.47
2018-08-19T00:06:37.796Z,90.34
2018-08-19T00:07:37.869Z,90.15
2018-08-19T00:08:37.868Z,90.02
2018-08-19T00:09:37.795Z,90.20
2018-08-19T00:10:37.771Z,90.26
2018-08-19T00:11:37.823Z,90.61
2018-08-19T00:12:37.774Z,90.90
2018-08-19T00:13:37.775Z,91.11
2018-08-19T00:14:37.865Z,91.33
2018-08-19T00:15:37.823Z,91.55
2018-08-19T00:16:37.776Z,91.33
2018-08-19T00:17:37.772Z,91.33
2018-08-19T00:18:37.864Z,91.52
2018-08-19T00:19:37.846Z,91.79
2018-08-19T00:20:37.877Z,91.73
2018-08-19T00:21:37.879Z,91.79
2018-08-19T00:22:37.835Z,91.84
2018-08-19T00:23:37.880Z,91.92
2018-08-19T00:24:37.810Z,91.92
2018-08-19T00:25:37.878Z,91.92
2018-08-19T00:26:37.911Z,91.76
2018-08-19T00:27:37.839Z,91.68
2018-08-19T00:28:37.823Z,91.76
2018-08-19T00:29:37.884Z,91.97
2018-08-19T00:30:37.817Z,92.11
2018-08-19T00:31:37.884Z,92.35
2018-08-19T00:32:37.830Z,92.62
2018-08-19T00:33:37.923Z,92.84
2018-08-19T00:34:37.815Z,92.91
2018-08-19T00:35:37.886Z,92.89
2018-08-19T00:36:37.888Z,92.91
2018-08-19T00:37:37.887Z,93.24
2018-08-19T00:38:37.887Z,93.54
2018-08-19T00:39:37.916Z,93.62
2018-08-19T00:40:37.910Z,93.62
2018-08-19T00:41:37.819Z,93.54
2018-08-19T00:42:37.891Z,93.54
2018-08-19T00:43:37.826Z,93.51
2018-08-19T00:44:37.892Z,93.64
2018-08-19T00:45:37.898Z,93.72
2018-08-19T00:46:37.824Z,93.67
2018-08-19T00:47:37.894Z,93.78
2018-08-19T00:48:37.825Z,93.89
2018-08-19T00:49:37.895Z,93.78
2018-08-19T00:50:37.847Z,93.70
2018-08-19T00:51:37.826Z,93.59
2018-08-19T00:52:37.901Z,93.59
2018-08-19T00:53:37.830Z,93.64
2018-08-19T00:54:37.899Z,93.75
2018-08-19T00:55:37.835Z,93.81
2018-08-19T00:56:37.867Z,93.89
2018-08-19T00:57:37.901Z,93.94
2018-08-19T00:58:37.837Z,93.96
2018-08-19T00:59:37.904Z,93.99
2018-08-19T01:00:37.842Z,93.94
2018-08-19T01:01:38.060Z,93.83
2018-08-19T01:02:37.840Z,93.75
2018-08-19T01:03:37.911Z,93.72
2018-08-19T01:04:37.906Z,93.75
2018-08-19T01:05:37.907Z,93.83
2018-08-19T01:06:37.906Z,93.96
2018-08-19T01:07:37.907Z,94.15
2018-08-19T01:08:37.841Z,94.34
2018-08-19T01:09:37.932Z,94.29
2018-08-19T01:10:37.845Z,94.26
2018-08-19T01:11:37.842Z,94.15
2018-08-19T01:12:37.918Z,94.12
2018-08-19T01:13:37.846Z,94.15
2018-08-19T01:14:37.914Z,94.23
2018-08-19T01:15:37.920Z,94.26
2018-08-19T01:16:37.915Z,94.21
2018-08-19T01:17:37.846Z,94.15
2018-08-19T01:18:37.917Z,94.15
2018-08-19T01:19:37.930Z,94.12
2018-08-19T01:20:37.854Z,94.15
2018-08-19T01:21:37.918Z,94.18
2018-08-19T01:22:37.922Z,94.34
2018-08-19T01:23:37.850Z,94.26
2018-08-19T01:24:37.921Z,94.29
2018-08-19T01:25:37.852Z,94.29
2018-08-19T01:26:37.856Z,94.26
2018-08-19T01:27:37.923Z,94.18
2018-08-19T01:28:37.860Z,94.10
2018-08-19T01:29:37.924Z,94.07
2018-08-19T01:30:37.933Z,94.15
2018-08-19T01:31:37.924Z,94.42
2018-08-19T01:32:37.955Z,94.61
2018-08-19T01:33:37.927Z,94.88
2018-08-19T01:34:37.938Z,94.96
2018-08-19T01:35:37.860Z,95.01
2018-08-19T01:36:37.893Z,95.12
2018-08-19T01:37:37.856Z,95.10
2018-08-19T01:38:37.931Z,95.18
2018-08-19T01:39:37.932Z,95.34
2018-08-19T01:40:37.933Z,95.66
2018-08-19T01:41:37.934Z,95.91
2018-08-19T01:42:37.863Z,95.98
2018-08-19T01:43:37.858Z,95.88
2018-08-19T01:44:37.934Z,95.88
2018-08-19T01:45:37.938Z,96.15
2018-08-19T01:46:37.938Z,96.42
2018-08-19T01:47:37.872Z,96.55
2018-08-19T01:48:37.941Z,96.69
2018-08-19T01:49:37.939Z,96.69
2018-08-19T01:50:37.866Z,96.72
2018-08-19T01:51:37.887Z,96.34
2018-08-19T01:52:37.836Z,96.20
2018-08-19T01:53:37.807Z,96.09
2018-08-19T01:54:37.804Z,95.98
2018-08-19T01:55:37.937Z,95.91
2018-08-19T01:56:37.869Z,95.88
2018-08-19T01:57:37.847Z,95.91
2018-08-19T01:58:37.857Z,96.20
2018-08-19T01:59:37.893Z,96.53
2018-08-19T02:00:37.891Z,96.74
2018-08-19T02:01:37.952Z,96.91
2018-08-19T02:02:37.953Z,97.02
2018-08-19T02:03:37.888Z,97.07
2018-08-19T02:04:37.949Z,97.15
2018-08-19T02:05:37.881Z,97.18
2018-08-19T02:06:37.950Z,97.07
2018-08-19T02:07:37.879Z,96.96
2018-08-19T02:08:37.949Z,96.85
2018-08-19T02:09:37.954Z,96.85
2018-08-19T02:10:37.850Z,96.85
2018-08-19T02:11:37.817Z,96.83
2018-08-19T02:12:37.919Z,96.88
2018-08-19T02:13:37.862Z,96.93
2018-08-19T02:14:37.842Z,96.91
2018-08-19T02:15:37.944Z,96.83
2018-08-19T02:16:37.926Z,96.80
2018-08-19T02:17:37.858Z,96.83
2018-08-19T02:18:37.864Z,96.88
2018-08-19T02:19:37.948Z,96.99
2018-08-19T02:20:37.913Z,97.15
2018-08-19T02:21:37.948Z,97.26
2018-08-19T02:22:37.845Z,97.34
2018-08-19T02:23:37.864Z,97.34
2018-08-19T02:24:37.866Z,97.31
2018-08-19T02:25:37.868Z,97.58
2018-08-19T02:26:37.929Z,97.69
2018-08-19T02:27:37.868Z,97.85
2018-08-19T02:28:37.957Z,97.88
2018-08-19T02:29:37.829Z,97.88
2018-08-19T02:30:37.935Z,97.91
2018-08-19T02:31:37.874Z,97.99
2018-08-19T02:32:37.871Z,98.07
2018-08-19T02:34:37.960Z,98.15
2018-08-19T02:35:37.931Z,98.23
2018-08-19T02:36:37.960Z,98.29
2018-08-19T02:37:37.933Z,98.34
2018-08-19T02:38:37.911Z,98.48
2018-08-19T02:39:37.937Z,98.48
2018-08-19T02:40:37.978Z,98.45
2018-08-19T02:41:37.975Z,98.40
2018-08-19T02:42:37.978Z,98.42
2018-08-19T02:43:38.036Z,98.48
2018-08-19T02:44:37.912Z,98.53
2018-08-19T02:45:37.979Z,98.45
2018-08-19T02:46:37.913Z,98.50
2018-08-19T02:47:37.915Z,98.55
2018-08-19T02:48:38.015Z,98.69
2018-08-19T02:49:37.915Z,98.48
2018-08-19T02:50:37.946Z,98.40
2018-08-19T02:51:37.926Z,98.42
2018-08-19T02:52:37.948Z,98.61
2018-08-19T02:53:37.977Z,98.77
2018-08-19T02:54:37.930Z,98.85
2018-08-19T02:55:37.951Z,98.94
2018-08-19T02:56:37.884Z,99.02
2018-08-19T02:57:37.941Z,99.15
2018-08-19T02:58:37.974Z,99.26
2018-08-19T02:59:37.888Z,99.26
2018-08-19T03:00:37.837Z,99.26
2018-08-19T03:01:37.939Z,99.29
2018-08-19T03:02:37.841Z,99.26
2018-08-19T03:03:37.884Z,99.26
2018-08-19T03:04:37.890Z,99.32
2018-08-19T03:05:37.935Z,99.23
2018-08-19T03:06:37.939Z,99.26
2018-08-19T03:07:37.860Z,99.23
2018-08-19T03:08:37.933Z,99.37
2018-08-19T03:09:37.889Z,99.45
2018-08-19T03:10:37.922Z,99.53
2018-08-19T03:11:37.999Z,99.67
2018-08-19T03:12:38.208Z,99.81
2018-08-19T03:13:37.955Z,99.86
2018-08-19T03:14:37.933Z,99.89
2018-08-19T03:15:37.997Z,99.86
2018-08-19T03:16:37.996Z,99.89
2018-08-19T03:17:37.933Z,99.86
2018-08-19T03:18:38.000Z,99.89
2018-08-19T03:19:37.932Z,99.92
2018-08-19T03:20:38.002Z,99.99
2018-08-19T03:21:37.939Z,99.99
2018-08-19T03:22:38.005Z,99.99
2018-08-19T03:23:37.939Z,99.99
2018-08-19T03:24:37.937Z,99.99
2018-08-19T03:25:38.003Z,99.99
2018-08-19T03:26:37.941Z,99.99
2018-08-19T03:27:38.007Z,99.99
2018-08-19T03:28:38.017Z,99.99
2018-08-19T03:29:37.941Z,99.99
2018-08-19T03:30:37.957Z,99.96
2018-08-19T03:31:37.895Z,99.94
2018-08-19T03:32:37.940Z,99.99
2018-08-19T03:33:37.975Z,99.99
2018-08-19T03:34:37.917Z,99.99
2018-08-19T03:35:37.956Z,99.99
2018-08-19T03:36:37.991Z,99.99
2018-08-19T03:37:37.939Z,99.99
2018-08-19T03:38:37.973Z,99.99
2018-08-19T03:39:37.982Z,99.99
2018-08-19T03:40:38.051Z,99.99
2018-08-19T03:41:37.907Z,99.99
2018-08-19T03:42:37.949Z,99.99
2018-08-19T03:43:37.882Z,99.99
2018-08-19T03:44:38.001Z,99.99
2018-08-19T03:45:37.996Z,99.99
2018-08-19T03:46:37.947Z,99.99
2018-08-19T03:47:37.984Z,99.99
2018-08-19T03:48:37.968Z,99.99
2018-08-19T03:49:37.889Z,99.99
2018-08-19T03:50:38.023Z,99.99
2018-08-19T03:51:37.907Z,99.99
2018-08-19T03:52:38.022Z,99.99
2018-08-19T03:53:37.952Z,99.99
2018-08-19T03:54:37.955Z,99.99
2018-08-19T03:55:38.026Z,99.99
2018-08-19T03:56:37.958Z,99.99
2018-08-19T03:57:38.083Z,99.99
2018-08-19T03:58:38.039Z,99.99
2018-08-19T03:59:37.953Z,99.99
2018-08-19T04:00:38.030Z,99.99
2018-08-19T04:01:37.958Z,99.99
2018-08-19T04:02:38.029Z,99.99
2018-08-19T04:03:37.966Z,99.99
2018-08-19T04:04:38.032Z,99.99
2018-08-19T04:05:38.034Z,99.99
2018-08-19T04:06:37.962Z,99.99
2018-08-19T04:07:37.962Z,99.99
2018-08-19T04:08:38.035Z,99.99
2018-08-19T04:09:38.036Z,99.99
2018-08-19T04:10:37.970Z,99.99
2018-08-19T04:11:37.981Z,99.99
2018-08-19T04:12:38.038Z,99.99
2018-08-19T04:13:37.968Z,99.99
2018-08-19T04:14:37.969Z,99.99
2018-08-19T04:15:37.977Z,99.99
2018-08-19T04:16:38.043Z,99.99
2018-08-19T04:17:38.042Z,99.99
2018-08-19T04:18:37.976Z,99.99
2018-08-19T04:19:37.976Z,99.99
2018-08-19T04:20:38.003Z,99.99
2018-08-19T04:21:37.977Z,99.99
2018-08-19T04:22:37.987Z,99.99
2018-08-19T04:23:38.104Z,99.99
2018-08-19T04:24:38.065Z,99.99
2018-08-19T04:25:38.058Z,99.99
2018-08-19T04:26:37.984Z,99.99
2018-08-19T04:27:38.046Z,99.99
2018-08-19T04:28:37.977Z,99.99
2018-08-19T04:29:38.050Z,99.99
2018-08-19T04:30:38.001Z,99.99
2018-08-19T04:31:37.980Z,99.99
2018-08-19T04:32:38.048Z,99.99
2018-08-19T04:33:38.052Z,99.99
2018-08-19T04:34:38.052Z,99.99
2018-08-19T04:35:37.984Z,99.99
2018-08-19T04:36:38.066Z,99.99
2018-08-19T04:37:38.055Z,99.99
2018-08-19T04:38:37.977Z,99.99
2018-08-19T04:39:38.061Z,99.99
2018-08-19T04:40:38.021Z,99.99
2018-08-19T04:41:37.977Z,99.99
2018-08-19T04:42:38.003Z,99.99
2018-08-19T04:43:38.000Z,99.99
2018-08-19T04:44:37.957Z,99.99
2018-08-19T04:45:38.043Z,99.99
2018-08-19T04:46:37.933Z,99.99
2018-08-19T04:47:38.046Z,99.99
2018-08-19T04:48:38.005Z,99.99
2018-08-19T04:49:38.024Z,99.99
2018-08-19T04:50:38.001Z,99.99
2018-08-19T04:51:38.057Z,99.99
2018-08-19T04:52:37.938Z,99.99
2018-08-19T04:53:37.993Z,99.99
2018-08-19T04:54:38.053Z,99.99
2018-08-19T04:55:37.928Z,99.99
2018-08-19T04:56:37.976Z,99.99
2018-08-19T04:57:38.106Z,99.99
2018-08-19T04:58:37.970Z,99.99
2018-08-19T04:59:37.946Z,99.99
2018-08-19T05:00:38.026Z,99.99
2018-08-19T05:01:37.961Z,99.99
2018-08-19T05:02:38.030Z,99.99
2018-08-19T05:03:37.962Z,99.99
2018-08-19T05:04:37.980Z,99.99
2018-08-19T05:05:38.027Z,99.99
2018-08-19T05:06:38.029Z,99.99
2018-08-19T05:07:37.989Z,99.99
2018-08-19T05:08:37.955Z,99.99
2018-08-19T05:09:38.004Z,99.99
2018-08-19T05:10:38.007Z,99.99
2018-08-19T05:11:38.005Z,99.99
2018-08-19T05:12:38.079Z,99.99
2018-08-19T05:13:38.077Z,99.99
2018-08-19T05:14:38.011Z,99.99
2018-08-19T05:15:38.129Z,99.99
2018-08-19T05:16:38.054Z,99.99
2018-08-19T05:17:38.024Z,99.99
2018-08-19T05:18:38.083Z,99.99
2018-08-19T05:19:38.011Z,99.99
2018-08-19T05:20:38.081Z,99.99
2018-08-19T05:21:38.018Z,99.99
2018-08-19T05:22:38.119Z,99.99
2018-08-19T05:23:38.085Z,99.99
2018-08-19T05:24:38.031Z,99.99
2018-08-19T05:25:38.088Z,99.99
2018-08-19T05:26:38.019Z,99.99
2018-08-19T05:27:38.019Z,99.99
2018-08-19T05:28:38.091Z,99.99
2018-08-19T05:29:38.093Z,99.99
2018-08-19T05:30:38.092Z,99.99
2018-08-19T05:31:38.188Z,99.99
2018-08-19T05:32:38.021Z,99.99
2018-08-19T05:33:38.093Z,99.99
2018-08-19T05:34:38.027Z,99.99
2018-08-19T05:35:38.094Z,99.78
2018-08-19T05:36:38.028Z,99.21
2018-08-19T05:37:38.095Z,98.72
2018-08-19T05:38:38.099Z,98.15
2018-08-19T05:39:38.027Z,97.64
2018-08-19T05:40:38.066Z,97.18
2018-08-19T05:41:38.121Z,96.45
2018-08-19T05:42:38.024Z,95.83
2018-08-19T05:43:38.041Z,95.15
2018-08-19T05:44:38.026Z,94.37
2018-08-19T05:45:38.008Z,93.85
2018-08-19T05:46:38.032Z,93.43
2018-08-19T05:47:37.983Z,93.08
2018-08-19T05:48:37.983Z,92.78
2018-08-19T05:49:38.069Z,92.49
2018-08-19T05:50:37.964Z,92.27
2018-08-19T05:51:38.067Z,92.01
2018-08-19T05:52:38.044Z,91.84
2018-08-19T05:53:38.174Z,91.79
2018-08-19T05:54:38.095Z,91.41
2018-08-19T05:55:38.020Z,90.90
2018-08-19T05:56:38.071Z,90.20
2018-08-19T05:57:38.047Z,89.80
2018-08-19T05:58:38.057Z,89.16
2018-08-19T05:59:38.096Z,87.96
2018-08-19T06:00:37.947Z,87.45
2018-08-19T06:01:38.002Z,87.24
2018-08-19T06:02:37.960Z,86.68
2018-08-19T06:03:38.006Z,85.66
2018-08-19T06:04:37.963Z,85.32
2018-08-19T06:05:38.010Z,84.92
2018-08-19T06:06:38.016Z,84.52
2018-08-19T06:07:38.097Z,84.07
2018-08-19T06:08:37.970Z,83.65
2018-08-19T06:09:38.059Z,83.38
2018-08-19T06:10:38.016Z,82.75
2018-08-19T06:11:38.063Z,82.21
2018-08-19T06:12:37.951Z,81.82
2018-08-19T06:13:38.052Z,81.52
2018-08-19T06:14:38.054Z,81.05
2018-08-19T06:15:38.062Z,80.31
2018-08-19T06:16:38.019Z,79.63
2018-08-19T06:17:38.017Z,78.99
2018-08-19T06:18:38.023Z,78.78
2018-08-19T06:19:38.083Z,78.75
2018-08-19T06:20:38.066Z,78.59
2018-08-19T06:21:38.146Z,77.70
2018-08-19T06:22:38.058Z,77.94
2018-08-19T06:23:38.128Z,78.17
2018-08-19T06:24:38.112Z,78.65
2018-08-19T06:25:38.053Z,79.10
2018-08-19T06:26:38.134Z,79.23
2018-08-19T06:27:38.132Z,78.91
2018-08-19T06:28:38.133Z,78.91
2018-08-19T06:29:38.102Z,78.59
2018-08-19T06:30:38.136Z,78.33
2018-08-19T06:31:38.076Z,78.67
2018-08-19T06:32:38.025Z,78.47
2018-08-19T06:33:37.986Z,77.67
2018-08-19T06:34:38.041Z,77.97
2018-08-19T06:35:37.967Z,77.91
2018-08-19T06:36:38.122Z,77.75
2018-08-19T06:37:38.088Z,76.91
2018-08-19T06:38:38.077Z,76.31
2018-08-19T06:39:38.081Z,76.07
2018-08-19T06:40:37.974Z,75.86
2018-08-19T06:41:38.012Z,76.02
2018-08-19T06:42:38.050Z,75.49
2018-08-19T06:43:38.100Z,75.65
2018-08-19T06:44:37.994Z,74.34
2018-08-19T06:45:38.101Z,74.50
2018-08-19T06:46:38.069Z,74.47
2018-08-19T06:47:38.101Z,74.11
2018-08-19T06:48:37.997Z,73.74
2018-08-19T06:49:38.044Z,73.01
2018-08-19T06:50:38.071Z,72.95
2018-08-19T06:51:38.093Z,72.56
2018-08-19T06:52:38.145Z,71.78
2018-08-19T06:53:38.085Z,72.48
2018-08-19T06:54:38.078Z,72.12
2018-08-19T06:55:38.152Z,71.67
2018-08-19T06:56:38.106Z,71.75
2018-08-19T06:57:38.079Z,71.83
2018-08-19T06:58:38.108Z,71.67
2018-08-19T06:59:38.156Z,71.67
2018-08-19T07:00:38.083Z,71.83
2018-08-19T07:01:38.036Z,71.91
2018-08-19T07:02:38.152Z,73.14
2018-08-19T07:03:38.117Z,72.09
2018-08-19T07:04:38.046Z,72.09
2018-08-19T07:05:38.114Z,72.64
2018-08-19T07:06:38.156Z,71.60
2018-08-19T07:07:38.086Z,71.36
2018-08-19T07:08:38.158Z,71.07
2018-08-19T07:09:38.096Z,69.85
2018-08-19T07:10:38.160Z,70.14
2018-08-19T07:11:38.084Z,69.18
2018-08-19T07:12:38.185Z,68.40
2018-08-19T07:13:38.087Z,68.63
2018-08-19T07:14:38.183Z,67.64
2018-08-19T07:15:38.210Z,67.44
2018-08-19T07:16:38.156Z,67.77
2018-08-19T07:17:38.089Z,67.25
2018-08-19T07:18:38.280Z,67.46
2018-08-19T07:19:38.191Z,66.14
2018-08-19T07:20:38.098Z,64.93
2018-08-19T07:21:38.168Z,65.91
2018-08-19T07:22:38.095Z,65.18
2018-08-19T07:23:38.135Z,64.70
2018-08-19T07:24:38.170Z,64.52
2018-08-19T07:25:38.098Z,65.16
2018-08-19T07:26:38.171Z,65.91
2018-08-19T07:27:38.102Z,65.16
2018-08-19T07:28:38.178Z,65.14
2018-08-19T07:29:38.163Z,65.62
2018-08-19T07:30:38.168Z,64.65
2018-08-19T07:31:38.126Z,64.38
2018-08-19T07:32:38.133Z,65.26
2018-08-19T07:33:38.115Z,64.08
2018-08-19T07:34:38.142Z,64.05
2018-08-19T07:35:38.034Z,65.91
2018-08-19T07:36:38.069Z,64.80
2018-08-19T07:37:38.134Z,64.67
2018-08-19T07:38:38.106Z,64.59
2018-08-19T07:39:38.106Z,64.26
2018-08-19T07:40:38.050Z,63.30
2018-08-19T07:41:38.130Z,63.43
2018-08-19T07:42:38.061Z,64.13
2018-08-19T07:43:38.150Z,62.84
2018-08-19T07:44:38.181Z,62.90
2018-08-19T07:45:38.145Z,62.48
2018-08-19T07:46:38.084Z,62.82
2018-08-19T07:47:38.170Z,62.79
2018-08-19T07:48:38.174Z,61.91
2018-08-19T07:49:38.175Z,61.35
2018-08-19T07:50:38.171Z,61.48
2018-08-19T07:51:38.196Z,62.38
2018-08-19T07:52:38.071Z,61.14
2018-08-19T07:53:38.162Z,60.45
2018-08-19T07:54:38.092Z,59.65
2018-08-19T07:55:38.191Z,59.00
2018-08-19T07:56:38.095Z,57.71
2018-08-19T07:57:38.090Z,57.48
2018-08-19T07:58:38.193Z,57.82
2018-08-19T07:59:38.095Z,56.26
2018-08-19T08:00:38.212Z,56.26
2018-08-19T08:01:38.073Z,56.69
2018-08-19T08:02:38.183Z,57.18
2018-08-19T08:03:38.185Z,57.74
2018-08-19T08:04:38.079Z,58.71
2018-08-19T08:05:38.163Z,58.51
2018-08-19T08:06:38.076Z,57.56
2018-08-19T08:07:38.199Z,58.20
2018-08-19T08:08:38.111Z,57.95
2018-08-19T08:09:38.191Z,58.38
2018-08-19T08:10:38.085Z,57.97
2018-08-19T08:11:38.203Z,57.82
2018-08-19T08:12:38.133Z,56.39
2018-08-19T08:13:38.203Z,55.96
2018-08-19T08:14:38.130Z,56.97
2018-08-19T08:15:38.205Z,57.21
2018-08-19T08:16:38.217Z,56.87
2018-08-19T08:17:38.207Z,56.72
2018-08-19T08:18:38.134Z,56.52
2018-08-19T08:19:38.422Z,55.75
2018-08-19T08:20:38.213Z,56.13
2018-08-19T08:21:38.435Z,56.41
2018-08-19T08:22:38.136Z,55.19
2018-08-19T08:23:38.106Z,56.16
2018-08-19T08:24:38.072Z,56.13
2018-08-19T08:25:38.151Z,56.24
2018-08-19T08:26:38.167Z,54.83
2018-08-19T08:27:38.083Z,56.13
2018-08-19T08:28:38.173Z,54.68
2018-08-19T08:29:38.097Z,54.96
2018-08-19T08:30:38.163Z,55.27
2018-08-19T08:31:38.216Z,54.43
2018-08-19T08:32:38.140Z,55.24
2018-08-19T08:33:38.142Z,53.54
2018-08-19T08:34:38.221Z,53.77
2018-08-19T08:35:38.281Z,54.00
2018-08-19T08:36:38.220Z,55.06
2018-08-19T08:37:38.150Z,54.83
2018-08-19T08:38:38.223Z,53.03
2018-08-19T08:39:38.150Z,54.68
2018-08-19T08:40:38.247Z,54.76
2018-08-19T08:41:38.127Z,52.75
2018-08-19T08:42:38.152Z,52.83
2018-08-19T08:43:38.109Z,53.77
2018-08-19T08:44:38.156Z,53.34
2018-08-19T08:45:38.137Z,52.37
2018-08-19T08:46:38.209Z,54.17
2018-08-19T08:47:38.344Z,54.23
2018-08-19T08:48:38.211Z,52.78
2018-08-19T08:49:38.178Z,52.15
2018-08-19T08:50:38.193Z,51.92
2018-08-19T08:51:38.171Z,52.20
2018-08-19T08:52:38.221Z,51.99
2018-08-19T08:53:38.109Z,53.72
2018-08-19T08:54:38.159Z,51.59
2018-08-19T08:55:38.161Z,51.26
2018-08-19T08:56:38.192Z,51.31
2018-08-19T08:57:38.119Z,52.37
2018-08-19T08:58:38.221Z,50.88
2018-08-19T08:59:38.209Z,50.73
2018-08-19T09:00:38.197Z,51.79
2018-08-19T09:01:38.161Z,50.60
2018-08-19T09:02:38.254Z,50.88
2018-08-19T09:03:38.238Z,50.98
2018-08-19T09:04:38.169Z,52.65
2018-08-19T09:05:38.165Z,52.60
2018-08-19T09:06:38.245Z,51.97
2018-08-19T09:07:38.242Z,51.97
2018-08-19T09:08:38.170Z,52.32
2018-08-19T09:09:38.245Z,53.11
2018-08-19T09:10:38.172Z,53.67
2018-08-19T09:11:38.132Z,54.66
2018-08-19T09:12:38.168Z,52.68
2018-08-19T09:13:38.098Z,52.20
2018-08-19T09:14:38.201Z,52.37
2018-08-19T09:15:38.276Z,51.29
2018-08-19T09:16:38.170Z,52.73
2018-08-19T09:17:38.207Z,49.37
2018-08-19T09:18:38.091Z,49.34
2018-08-19T09:19:38.210Z,50.18
2018-08-19T09:20:38.137Z,49.92
2018-08-19T09:21:38.214Z,52.35
2018-08-19T09:22:38.151Z,49.62
2018-08-19T09:23:38.130Z,49.47
2018-08-19T09:24:38.176Z,48.79
2018-08-19T09:25:38.239Z,47.81
2018-08-19T09:26:38.253Z,48.54
2018-08-19T09:27:38.138Z,46.75
2018-08-19T09:28:38.256Z,46.20
2018-08-19T09:29:38.151Z,46.83
2018-08-19T09:30:38.186Z,47.86
2018-08-19T09:31:38.189Z,47.33
2018-08-19T09:32:38.193Z,45.62
2018-08-19T09:33:38.259Z,47.83
2018-08-19T09:34:38.191Z,46.88
2018-08-19T09:35:38.266Z,46.75
2018-08-19T09:36:38.197Z,47.20
2018-08-19T09:37:38.263Z,44.93
2018-08-19T09:38:38.191Z,45.35
2018-08-19T09:39:38.265Z,46.30
2018-08-19T09:40:38.225Z,46.07
2018-08-19T09:41:38.159Z,44.43
2018-08-19T09:42:38.122Z,45.80
2018-08-19T09:43:38.118Z,43.67
2018-08-19T09:44:38.165Z,45.87
2018-08-19T09:45:38.120Z,45.57
2018-08-19T09:46:38.162Z,46.50
2018-08-19T09:47:38.199Z,45.07
2018-08-19T09:48:38.213Z,45.40
2018-08-19T09:49:38.211Z,45.15
2018-08-19T09:50:38.170Z,45.50
2018-08-19T09:51:38.132Z,46.48
2018-08-19T09:52:38.197Z,45.10
2018-08-19T09:53:38.259Z,45.32
2018-08-19T09:54:38.155Z,46.10
2018-08-19T09:55:38.248Z,45.12
2018-08-19T09:56:38.247Z,44.62
2018-08-19T09:57:38.331Z,45.80
2018-08-19T09:58:38.263Z,43.60
2018-08-19T09:59:38.225Z,44.20
2018-08-19T10:00:38.178Z,42.67
2018-08-19T10:01:38.241Z,43.10
2018-08-19T10:02:38.282Z,42.95
2018-08-19T10:03:38.212Z,40.83
2018-08-19T10:04:38.282Z,42.42
2018-08-19T10:05:38.209Z,40.76
2018-08-19T10:06:38.282Z,40.76
2018-08-19T10:07:38.256Z,40.38
2018-08-19T10:08:38.294Z,40.54
2018-08-19T10:09:38.218Z,40.41
2018-08-19T10:10:38.286Z,40.11
2018-08-19T10:11:38.213Z,42.03
2018-08-19T10:12:38.287Z,42.25
2018-08-19T10:13:38.255Z,40.83
2018-08-19T10:14:38.288Z,39.17
2018-08-19T10:15:38.216Z,41.10
2018-08-19T10:16:38.287Z,40.13
2018-08-19T10:17:38.228Z,40.63
2018-08-19T10:18:38.290Z,41.38
2018-08-19T10:19:38.341Z,41.33
2018-08-19T10:20:38.217Z,40.56
2018-08-19T10:21:38.294Z,42.95
2018-08-19T10:22:38.226Z,41.08
2018-08-19T10:23:38.294Z,41.28
2018-08-19T10:24:38.223Z,42.00
2018-08-19T10:25:38.296Z,43.40
2018-08-19T10:26:38.294Z,40.93
2018-08-19T10:27:38.227Z,41.61
2018-08-19T10:28:38.298Z,41.03
2018-08-19T10:29:38.232Z,42.60
2018-08-19T10:30:38.221Z,41.85
2018-08-19T10:31:38.242Z,40.98
2018-08-19T10:32:38.305Z,40.36
2018-08-19T10:33:38.231Z,40.06
2018-08-19T10:34:38.301Z,39.52
2018-08-19T10:35:38.232Z,39.44
2018-08-19T10:36:38.305Z,39.74
2018-08-19T10:37:38.233Z,38.92
2018-08-19T10:38:38.193Z,39.64
2018-08-19T10:39:38.306Z,40.98
2018-08-19T10:40:38.235Z,40.85
2018-08-19T10:41:38.319Z,42.62
2018-08-19T10:42:38.237Z,40.16
2018-08-19T10:43:38.309Z,39.66
2018-08-19T10:44:38.239Z,41.23
2018-08-19T10:45:38.310Z,39.32
2018-08-19T10:46:38.239Z,39.34
2018-08-19T10:47:38.315Z,38.47
2018-08-19T10:48:38.238Z,39.24
2018-08-19T10:49:38.315Z,38.70
2018-08-19T10:50:38.317Z,39.07
2018-08-19T10:51:38.150Z,38.94
2018-08-19T10:52:38.181Z,37.71
2018-08-19T10:53:38.275Z,36.82
2018-08-19T10:54:38.271Z,38.13
2018-08-19T10:55:38.258Z,36.97
2018-08-19T10:56:38.178Z,36.28
2018-08-19T10:57:38.283Z,37.27
2018-08-19T10:58:38.285Z,37.53
2018-08-19T10:59:38.187Z,37.93
2018-08-19T11:00:38.285Z,37.61
2018-08-19T11:01:38.218Z,37.46
2018-08-19T11:02:38.283Z,37.16
2018-08-19T11:03:38.200Z,36.75
2018-08-19T11:04:38.283Z,35.21
2018-08-19T11:05:38.289Z,36.84
2018-08-19T11:06:38.294Z,36.97
2018-08-19T11:07:38.325Z,36.08
2018-08-19T11:08:38.261Z,36.40
2018-08-19T11:09:38.301Z,37.68
2018-08-19T11:10:38.227Z,36.42
2018-08-19T11:11:38.204Z,36.30
2018-08-19T11:12:38.285Z,37.27
2018-08-19T11:13:38.312Z,38.33
2018-08-19T11:14:38.257Z,37.44
2018-08-19T11:15:38.227Z,36.52
2018-08-19T11:16:38.300Z,37.44
2018-08-19T11:17:38.273Z,36.57
2018-08-19T11:18:38.301Z,35.44
2018-08-19T11:19:38.330Z,35.56
2018-08-19T11:20:38.295Z,34.90
2018-08-19T11:21:38.293Z,34.23
2018-08-19T11:22:38.217Z,37.83
2018-08-19T11:23:38.299Z,35.19
2018-08-19T11:24:38.213Z,37.06
2018-08-19T11:25:38.324Z,42.95
2018-08-19T11:26:38.282Z,35.21
2018-08-19T11:27:38.312Z,34.85
2018-08-19T11:28:38.306Z,34.18
2018-08-19T11:29:38.223Z,36.57
2018-08-19T11:30:38.265Z,35.12
2018-08-19T11:31:38.292Z,34.55
2018-08-19T11:32:38.271Z,35.46
2018-08-19T11:33:38.268Z,35.44
2018-08-19T11:34:38.228Z,35.83
2018-08-19T11:35:38.245Z,34.67
2018-08-19T11:36:38.323Z,34.75
2018-08-19T11:37:38.295Z,35.24
2018-08-19T11:38:38.288Z,35.09
2018-08-19T11:39:38.269Z,34.45
2018-08-19T11:40:38.251Z,34.40
2018-08-19T11:41:38.353Z,33.76
2018-08-19T11:42:38.278Z,34.52
2018-08-19T11:43:38.282Z,34.82
2018-08-19T11:44:38.352Z,33.22
2018-08-19T11:45:38.283Z,33.76
2018-08-19T11:46:38.278Z,36.59
2018-08-19T11:47:38.353Z,34.16
2018-08-19T11:48:38.287Z,33.47
2018-08-19T11:49:38.354Z,32.76
2018-08-19T11:50:38.285Z,32.00
2018-08-19T11:51:38.282Z,33.03
2018-08-19T11:52:38.292Z,33.94
2018-08-19T11:53:38.360Z,33.91
2018-08-19T11:54:38.355Z,35.21
2018-08-19T11:55:38.360Z,33.25
2018-08-19T11:56:38.281Z,32.79
2018-08-19T11:57:38.362Z,32.81
2018-08-19T11:58:38.299Z,34.75
2018-08-19T11:59:38.287Z,33.79
2018-08-19T12:00:38.368Z,33.05
2018-08-19T12:01:38.361Z,33.40
2018-08-19T12:02:38.258Z,34.75
2018-08-19T12:03:38.240Z,34.30
2018-08-19T12:04:38.328Z,33.25
2018-08-19T12:05:38.333Z,32.91
2018-08-19T12:06:38.247Z,32.74
2018-08-19T12:07:38.226Z,36.05
2018-08-19T12:08:38.267Z,33.03
2018-08-19T12:09:38.299Z,32.63
2018-08-19T12:10:38.368Z,33.13
2018-08-19T12:11:38.296Z,32.93
2018-08-19T12:12:38.374Z,32.22
2018-08-19T12:13:38.302Z,33.99
2018-08-19T12:14:38.372Z,32.74
2018-08-19T12:15:38.298Z,33.96
2018-08-19T12:16:38.377Z,34.18
2018-08-19T12:17:38.301Z,34.21
2018-08-19T12:18:38.374Z,33.84
2018-08-19T12:19:38.305Z,34.23
2018-08-19T12:20:38.380Z,34.82
2018-08-19T12:21:38.304Z,34.75
2018-08-19T12:22:38.370Z,34.45
2018-08-19T12:23:38.278Z,34.38
2018-08-19T12:24:38.324Z,36.20
2018-08-19T12:25:38.254Z,34.35
2018-08-19T12:26:38.279Z,34.18
2018-08-19T12:27:38.443Z,34.43
2018-08-19T12:28:38.264Z,36.94
2018-08-19T12:29:38.370Z,34.77
2018-08-19T12:30:38.308Z,35.21
2018-08-19T12:31:38.383Z,34.13
2018-08-19T12:32:38.323Z,33.66
2018-08-19T12:33:38.369Z,34.11
2018-08-19T12:34:38.398Z,34.11
2018-08-19T12:35:38.311Z,32.91
2018-08-19T12:36:38.314Z,34.16
2018-08-19T12:37:38.324Z,32.93
2018-08-19T12:38:38.374Z,33.57
2018-08-19T12:39:38.354Z,32.39
2018-08-19T12:40:38.350Z,32.91
2018-08-19T12:41:38.351Z,32.41
2018-08-19T12:42:38.297Z,32.29
2018-08-19T12:43:38.335Z,31.92
2018-08-19T12:44:38.289Z,32.61
2018-08-19T12:45:38.323Z,33.22
2018-08-19T12:46:38.351Z,33.18
2018-08-19T12:47:38.373Z,32.07
2018-08-19T12:48:38.323Z,32.56
2018-08-19T12:49:38.322Z,32.63
2018-08-19T12:50:38.295Z,33.35
2018-08-19T12:51:38.404Z,33.84
2018-08-19T12:52:38.330Z,33.59
2018-08-19T12:53:38.399Z,34.13